ADDS METAR Data INFO
IDs: Format: Raw Decoded Include TAF

Data at: 1335 UTC 23 Jun 2018

KIFP 231315Z AUTO 16007KT 10SM CLR 31/00 A2966 RMK AO2
KIFP 231255Z AUTO 15007KT 10SM CLR 30/M01 A2965 RMK AO2
KIFP 231235Z AUTO 15007KT 10SM CLR 30/M02 A2964 RMK AO2
KIFP 231215Z AUTO 15008KT 10SM CLR 31/M03 A2963 RMK AO2
KIFP 231155Z AUTO 14004KT 10SM CLR 30/M04 A2963 RMK AO2
KIFP 231135Z AUTO 14006KT 10SM CLR 30/M06 A2963 RMK AO2
KIFP 231115Z AUTO 13006KT 10SM CLR 29/M07 A2962 RMK AO2
KIFP 231055Z AUTO 13003KT 10SM CLR 29/M07 A2962 RMK AO2
KIFP 231035Z AUTO 00000KT 10SM CLR 30/M07 A2961 RMK AO2
KIFP 231015Z AUTO 11004KT 10SM CLR 30/M08 A2961 RMK AO2
KIFP 230955Z AUTO 00000KT 10SM CLR 30/M09 A2961 RMK AO2
KIFP 230935Z AUTO 16005KT 10SM CLR 31/M09 A2961 RMK AO2
KIFP 230915Z AUTO 15005KT 10SM CLR 31/M10 A2961 RMK AO2
KIFP 230855Z AUTO 15004KT 10SM CLR 32/M09 A2960 RMK AO2
KIFP 230835Z AUTO 15004KT 10SM CLR 32/M11 A2960 RMK AO2
KIFP 230815Z AUTO 12005KT 10SM CLR 33/M11 A2960 RMK AO2
KIFP 230755Z AUTO 00000KT 10SM CLR 34/M11 A2960 RMK AO2
KIFP 230735Z AUTO 00000KT 10SM CLR 35/M11 A2960 RMK AO2
KIFP 230715Z AUTO 00000KT 10SM CLR 36/M11 A2960 RMK AO2
KIFP 230655Z AUTO 19004KT 10SM CLR 36/M10 A2960 RMK AO2
KIFP 230635Z AUTO 00000KT 10SM CLR 37/M08 A2960 RMK AO2
KIFP 230615Z AUTO 00000KT 10SM CLR 37/M08 A2960 RMK AO2
KIFP 230555Z AUTO 21005KT 10SM CLR 39/M11 A2960 RMK AO2
KIFP 230535Z AUTO 18007KT 10SM CLR 38/M09 A2960 RMK AO2
KIFP 230515Z AUTO 25004KT 10SM CLR 39/M09 A2960 RMK AO2
KIFP 230455Z AUTO 15005KT 10SM CLR 39/M09 A2960 RMK AO2
KIFP 230435Z AUTO VRB03KT 10SM CLR 40/M08 A2959 RMK AO2
KIFP 230415Z AUTO 16005KT 10SM CLR 40/M08 A2959 RMK AO2
KIFP 230355Z AUTO 19005KT 10SM CLR 41/M08 A2958 RMK AO2
KIFP 230335Z AUTO 00000KT 10SM CLR 42/M09 A2957 RMK AO2
KIFP 230315Z AUTO 20005KT 10SM CLR 42/M09 A2957 RMK AO2
KIFP 230255Z AUTO 00000KT 10SM CLR 43/M10 A2957 RMK AO2
KIFP 230235Z AUTO 24003KT 10SM CLR 44/M11 A2957 RMK AO2
KIFP 230215Z AUTO 24004KT 10SM CLR 45/M11 A2957 RMK AO2
KIFP 230155Z AUTO 00000KT 10SM CLR 45/M11 A2957 RMK AO2
KIFP 230135Z AUTO 00000KT 10SM CLR 45/M12 A2957 RMK AO2
KIFP 230120Z AUTO 00000KT 10SM CLR 45/M12 A2957 RMK AO2
KIFP 230049Z 00000KT 20SM SKC 45/M12 A2958
KIFP 222352Z 25005KT 20SM SKC 45/M11 A2960
KIFP 222249Z 36006KT 20SM SKC 46/M11 A2962
KIFP 222147Z 36007KT 20SM SKC 45/M09 A2985
KIFP 222047Z 00000KT 20SM SKC 43/M08 A2969
KIFP 221947Z 33006KT 20SM SKC 42/M08 A2971
KIFP 221850Z 33008KT 20SM SKC 41/M08 A2974
KIFP 221752Z 26004KT 20SM SKC 38/M04 A2976
KIFP 221647Z 20004KT 20SM SKC 36/M02 A2978
KIFP 221548Z 00000KT 20SM SKC 34/M01 A2978
KIFP 221448Z 19003KT 10SM SKC 32/M01 A2977
KIFP 221430Z AUTO 00000KT 10SM CLR 32/M01 A2977 RMK AO2
KIFP 221415Z AUTO 00000KT 10SM CLR 31/M00 A2977 RMK AO2
KIFP 221355Z AUTO 00000KT 10SM CLR 30/M00 A2976 RMK AO2
KIFP 221335Z AUTO 00000KT 10SM CLR 30/M01 A2975 RMK AO2
KIFP 221315Z AUTO 12005KT 10SM CLR 29/M01 A2975 RMK AO2
KIFP 221255Z AUTO 13005KT 10SM CLR 29/M01 A2974 RMK AO2
KIFP 221235Z AUTO 11006KT 10SM CLR 29/M01 A2974 RMK AO2
KIFP 221215Z AUTO 16008KT 10SM CLR 29/M01 A2971 RMK AO2
KIFP 221155Z AUTO 31003KT 10SM CLR 28/00 A2973 RMK AO2
KIFP 221135Z AUTO 32005KT 10SM CLR 31/M01 A2972 RMK AO2
KIFP 221115Z AUTO 16004KT 10SM CLR 32/M01 A2971 RMK AO2
KIFP 221055Z AUTO 16007KT 10SM CLR 31/M02 A2971 RMK AO2
KIFP 221035Z AUTO 21004KT 10SM CLR 31/M02 A2971 RMK AO2
KIFP 221015Z AUTO 13005KT 10SM CLR 30/M02 A2971 RMK AO2
KIFP 220955Z AUTO 36004KT 10SM CLR 30/M02 A2972 RMK AO2
KIFP 220935Z AUTO 13006KT 10SM CLR 31/M02 A2971 RMK AO2
KIFP 220915Z AUTO 14003KT 10SM CLR 31/M02 A2971 RMK AO2
KIFP 220855Z AUTO 00000KT 10SM CLR 33/M02 A2971 RMK AO2
KIFP 220835Z AUTO 00000KT 10SM CLR 33/M02 A2971 RMK AO2
KIFP 220815Z AUTO 09005KT 10SM CLR 34/M02 A2971 RMK AO2
KIFP 220755Z AUTO 11005KT 10SM CLR 33/M02 A2971 RMK AO2
KIFP 220735Z AUTO 00000KT 10SM CLR 35/M02 A2972 RMK AO2
KIFP 220715Z AUTO 00000KT 10SM CLR 34/M02 A2972 RMK AO2
KIFP 220655Z AUTO 00000KT 10SM CLR 34/M02 A2971 RMK AO2
KIFP 220635Z AUTO 18005KT 10SM CLR 35/M02 A2971 RMK AO2
KIFP 220615Z AUTO 19006KT 10SM CLR 35/M02 A2971 RMK AO2
KIFP 220555Z AUTO 22005KT 10SM CLR 35/M03 A2971 RMK AO2
KIFP 220535Z AUTO 00000KT 10SM CLR 37/M03 A2971 RMK AO2
KIFP 220515Z AUTO 16007KT 10SM CLR 39/M06 A2971 RMK AO2
KIFP 220455Z AUTO 15011KT 10SM CLR 40/M06 A2970 RMK AO2
KIFP 220435Z AUTO 19005KT 10SM CLR 39/M05 A2971 RMK AO2
KIFP 220415Z AUTO 16012KT 10SM CLR 40/M05 A2969 RMK AO2
KIFP 220355Z AUTO 16013KT 10SM CLR 41/M05 A2968 RMK AO2
KIFP 220335Z AUTO 16016KT 10SM CLR 41/M05 A2967 RMK AO2
KIFP 220315Z AUTO 16015KT 10SM CLR 42/M06 A2967 RMK AO2
KIFP 220255Z AUTO 16017KT 10SM CLR 42/M06 A2967 RMK AO2
KIFP 220235Z AUTO 17018G23KT 10SM CLR 43/M06 A2967 RMK AO2
KIFP 220215Z AUTO 17017KT 10SM CLR 43/M06 A2966 RMK AO2
KIFP 220155Z AUTO 17015KT 10SM CLR 44/M05 A2966 RMK AO2